Time;durP1;ratioP1;P1;durP2;ratioP2;P2;SDS_P1;SDS_P2;PMS_P1;PMS_P2;Temp;Humidity;BMP_temperature;BMP_pressure;BME280_temperature;BME280_humidity;BME280_pressure;Samples;Min_cycle;Max_cycle;Signal;HPM_P1;HPM_P2
2023/06/14 00:01:38;;;;;;;4.00;2.40;;;21.10;41.40;;;;;;5082419;28;20421;-67
2023/06/14 00:04:05;;;;;;;5.03;2.35;;;21.00;41.60;;;;;;5084909;28;20050;-67
2023/06/14 00:06:31;;;;;;;5.28;2.33;;;21.00;41.80;;;;;;5093318;28;20032;-66
2023/06/14 00:08:57;;;;;;;2.58;2.03;;;21.00;41.90;;;;;;5094078;28;20020;-67
2023/06/14 00:11:22;;;;;;;3.80;2.25;;;20.90;41.90;;;;;;5091603;28;20024;-67
2023/06/14 00:13:48;;;;;;;4.10;2.25;;;20.90;42.00;;;;;;5082597;28;20023;-67
2023/06/14 00:16:13;;;;;;;5.05;2.20;;;20.80;42.10;;;;;;5089853;28;20063;-67
2023/06/14 00:18:39;;;;;;;3.13;2.20;;;20.90;42.30;;;;;;5087918;28;20078;-67
2023/06/14 00:21:05;;;;;;;2.53;2.20;;;20.80;42.50;;;;;;5084610;28;20023;-67
2023/06/14 00:23:30;;;;;;;2.67;2.03;;;20.80;42.60;;;;;;5082047;28;20024;-67
2023/06/14 00:25:56;;;;;;;4.18;2.15;;;20.80;42.60;;;;;;5086822;28;20044;-67
2023/06/14 00:28:21;;;;;;;4.20;2.40;;;20.80;42.70;;;;;;5083566;28;20027;-67
2023/06/14 00:30:47;;;;;;;5.70;2.33;;;20.70;42.90;;;;;;5086718;28;20033;-68
2023/06/14 00:33:13;;;;;;;3.25;2.30;;;20.60;43.00;;;;;;5085163;28;20031;-68
2023/06/14 00:35:38;;;;;;;4.15;2.10;;;20.60;43.10;;;;;;5089756;28;20099;-68
2023/06/14 00:38:04;;;;;;;7.47;2.30;;;20.60;43.10;;;;;;5094553;28;20024;-68
2023/06/14 00:40:29;;;;;;;2.58;2.20;;;20.60;43.20;;;;;;5100127;28;20039;-68
2023/06/14 00:42:55;;;;;;;3.20;2.20;;;20.60;43.30;;;;;;5090681;28;20055;-68
2023/06/14 00:45:21;;;;;;;4.00;2.42;;;20.60;43.50;;;;;;5100330;28;20027;-67
2023/06/14 00:47:50;;;;;;;3.63;2.30;;;20.60;43.60;;;;;;5102912;28;20019;-67
2023/06/14 00:50:16;;;;;;;2.97;2.03;;;20.60;43.50;;;;;;5104059;28;20029;-67
2023/06/14 00:52:42;;;;;;;5.95;2.42;;;20.60;43.60;;;;;;5090411;28;20012;-67
2023/06/14 00:55:08;;;;;;;4.63;2.40;;;20.50;43.80;;;;;;5090566;28;20084;-67
2023/06/14 00:57:37;;;;;;;5.00;2.40;;;20.50;44.20;;;;;;5095757;28;20013;-67
2023/06/14 01:00:08;;;;;;;3.03;2.35;;;20.40;44.40;;;;;;5085972;28;20024;-67
2023/06/14 01:02:33;;;;;;;3.63;2.07;;;20.40;44.50;;;;;;5076282;28;20042;-68
2023/06/14 01:05:00;;;;;;;4.93;2.60;;;20.40;44.40;;;;;;5081555;28;20667;-68
2023/06/14 01:08:08;;;;;;;4.72;2.63;;;20.30;44.80;;;;;;5090207;28;20677;-68
2023/06/14 01:11:02;;;;;;;4.53;2.60;;;20.20;45.10;;;;;;5096103;28;20035;-67
2023/06/14 01:13:35;;;;;;;4.72;2.33;;;20.10;45.20;;;;;;5102677;28;20020;-67
2023/06/14 01:16:02;;;;;;;5.15;2.50;;;20.10;45.10;;;;;;5097866;28;20111;-68
2023/06/14 01:18:29;;;;;;;4.28;2.53;;;20.10;45.10;;;;;;5092996;28;20020;-68
2023/06/14 01:20:55;;;;;;;3.97;2.20;;;20.10;45.60;;;;;;5091811;28;20482;-68
2023/06/14 01:23:23;;;;;;;2.63;2.28;;;20.00;45.60;;;;;;5089615;28;20658;-68
2023/06/14 01:25:52;;;;;;;5.03;2.15;;;20.10;45.40;;;;;;5092657;28;20217;-68
2023/06/14 01:28:20;;;;;;;3.90;2.05;;;20.00;45.40;;;;;;5102525;28;20036;-67
2023/06/14 01:30:48;;;;;;;5.07;2.50;;;20.00;45.70;;;;;;5085253;28;20566;-67
2023/06/14 01:33:22;;;;;;;5.22;2.35;;;20.00;45.80;;;;;;5096907;28;20032;-67
2023/06/14 01:35:51;;;;;;;3.85;2.00;;;20.00;45.70;;;;;;5091685;28;20070;-67
2023/06/14 01:38:19;;;;;;;3.88;2.00;;;19.90;45.70;;;;;;5093395;28;20020;-67
2023/06/14 01:40:47;;;;;;;5.57;2.00;;;19.90;45.60;;;;;;5086481;28;20074;-67
2023/06/14 01:43:16;;;;;;;3.08;2.10;;;19.90;45.90;;;;;;5088312;28;20023;-67
2023/06/14 01:45:44;;;;;;;4.22;2.10;;;19.90;45.70;;;;;;5096404;28;20024;-67
2023/06/14 01:48:09;;;;;;;3.75;2.10;;;19.90;45.60;;;;;;5073658;28;20387;-67
2023/06/14 01:50:35;;;;;;;3.83;2.15;;;19.90;46.00;;;;;;5081956;28;20028;-67
2023/06/14 01:53:01;;;;;;;2.47;2.05;;;19.80;46.10;;;;;;5073497;28;20028;-67
2023/06/14 01:55:27;;;;;;;2.60;1.90;;;19.80;46.10;;;;;;5089122;28;20028;-67
2023/06/14 01:57:53;;;;;;;3.78;2.10;;;19.80;46.10;;;;;;5092472;28;20020;-67
2023/06/14 02:00:19;;;;;;;5.22;2.20;;;19.70;46.10;;;;;;5104025;28;20016;-67
2023/06/14 02:02:45;;;;;;;2.88;2.00;;;19.70;46.20;;;;;;5112485;28;20019;-67
2023/06/14 02:05:11;;;;;;;4.55;2.10;;;19.70;46.20;;;;;;5091894;28;20028;-67
2023/06/14 02:07:37;;;;;;;3.72;2.10;;;19.70;46.20;;;;;;5091557;28;20031;-67
2023/06/14 02:10:03;;;;;;;6.53;2.30;;;19.70;46.40;;;;;;5086820;28;20410;-67
2023/06/14 02:12:29;;;;;;;8.48;2.63;;;19.70;46.40;;;;;;5073758;28;20044;-67
2023/06/14 02:14:56;;;;;;;2.88;2.30;;;19.70;46.80;;;;;;5075157;28;20572;-67
2023/06/14 02:17:22;;;;;;;4.32;2.20;;;19.60;47.00;;;;;;5076423;28;20018;-67
2023/06/14 02:19:48;;;;;;;4.28;2.40;;;19.50;47.20;;;;;;5084091;28;20100;-67
2023/06/14 02:22:14;;;;;;;2.78;1.92;;;19.40;47.10;;;;;;5071111;28;20109;-67
2023/06/14 02:24:41;;;;;;;5.28;2.30;;;19.50;47.00;;;;;;5083381;28;20081;-67
2023/06/14 02:27:10;;;;;;;4.60;2.53;;;19.50;46.90;;;;;;5071317;28;20040;-67
2023/06/14 02:29:35;;;;;;;3.10;2.10;;;19.50;47.40;;;;;;5080037;28;20039;-67
2023/06/14 02:32:01;;;;;;;2.58;1.90;;;19.50;47.50;;;;;;5071521;28;20032;-67
2023/06/14 02:34:27;;;;;;;5.88;2.97;;;19.40;47.30;;;;;;5079352;28;20038;-67
2023/06/14 02:36:52;;;;;;;5.65;3.67;;;19.40;47.60;;;;;;5091375;28;20016;-67
2023/06/14 02:39:20;;;;;;;3.30;2.40;;;19.40;47.50;;;;;;5083613;28;20497;-67
2023/06/14 02:41:46;;;;;;;2.97;2.10;;;19.30;47.60;;;;;;5092551;28;20051;-66
2023/06/14 02:44:13;;;;;;;2.70;1.92;;;19.40;47.50;;;;;;5084995;28;20052;-67
2023/06/14 02:46:38;;;;;;;2.95;2.08;;;19.40;47.50;;;;;;5097484;28;20027;-67
2023/06/14 02:49:04;;;;;;;3.25;1.75;;;19.40;47.40;;;;;;5098765;28;20402;-67
2023/06/14 02:51:29;;;;;;;5.75;2.50;;;19.40;47.30;;;;;;5102189;28;20016;-67
2023/06/14 02:53:55;;;;;;;7.57;2.50;;;19.40;47.40;;;;;;5088569;28;20036;-67
2023/06/14 02:56:22;;;;;;;6.05;2.35;;;19.30;47.80;;;;;;5101082;28;20032;-67
2023/06/14 02:58:48;;;;;;;4.63;2.40;;;19.30;47.70;;;;;;5091564;28;20023;-67
2023/06/14 03:01:14;;;;;;;5.47;2.38;;;19.20;48.00;;;;;;5087048;28;20028;-67
2023/06/14 03:03:40;;;;;;;4.80;2.58;;;19.20;48.10;;;;;;5093625;28;20169;-67
2023/06/14 03:06:05;;;;;;;2.40;2.00;;;19.20;48.10;;;;;;5083392;28;20032;-67
2023/06/14 03:08:33;;;;;;;3.85;2.22;;;19.20;48.30;;;;;;5085729;28;20032;-67
2023/06/14 03:10:58;;;;;;;4.72;2.65;;;19.20;48.30;;;;;;5090479;28;20032;-66
2023/06/14 03:13:24;;;;;;;4.10;2.22;;;19.20;48.30;;;;;;5080209;28;20026;-67
2023/06/14 03:15:52;;;;;;;3.72;1.90;;;19.10;48.10;;;;;;5079277;28;20033;-66
2023/06/14 03:18:19;;;;;;;5.03;2.47;;;19.10;48.70;;;;;;5076684;28;20074;-67
2023/06/14 03:20:45;;;;;;;3.22;2.20;;;19.10;48.20;;;;;;5080108;28;20022;-67
2023/06/14 03:23:11;;;;;;;3.28;2.10;;;19.10;48.30;;;;;;5081386;28;20031;-66
2023/06/14 03:25:38;;;;;;;2.90;2.10;;;19.00;48.40;;;;;;5081644;28;20016;-67
2023/06/14 03:28:04;;;;;;;4.30;2.30;;;19.00;48.50;;;;;;5087584;28;20031;-67
2023/06/14 03:30:31;;;;;;;4.72;2.55;;;19.00;48.80;;;;;;5079888;28;20035;-68
2023/06/14 03:32:57;;;;;;;5.20;2.20;;;18.90;49.10;;;;;;5088122;28;20105;-67
2023/06/14 03:35:23;;;;;;;3.20;2.15;;;18.90;49.30;;;;;;5096595;28;20486;-67
2023/06/14 03:37:50;;;;;;;5.80;2.08;;;18.90;49.20;;;;;;5079019;28;20024;-67
2023/06/14 03:40:18;;;;;;;2.67;1.98;;;18.90;49.10;;;;;;5073058;28;20051;-67
2023/06/14 03:42:44;;;;;;;4.75;2.17;;;18.90;49.10;;;;;;5074815;28;20055;-67
2023/06/14 03:45:10;;;;;;;3.15;2.05;;;18.70;49.70;;;;;;5087131;28;20063;-67
2023/06/14 03:47:35;;;;;;;5.45;2.08;;;18.80;50.30;;;;;;5071204;28;20028;-67
2023/06/14 03:50:04;;;;;;;3.38;2.30;;;18.80;49.50;;;;;;5085407;28;20020;-67
2023/06/14 03:52:31;;;;;;;2.35;1.65;;;18.80;49.80;;;;;;5075973;28;20027;-67
2023/06/14 03:54:56;;;;;;;3.85;2.10;;;18.80;49.70;;;;;;5091351;28;20035;-66
2023/06/14 03:57:23;;;;;;;4.13;2.47;;;18.80;49.80;;;;;;5085361;28;20015;-66
2023/06/14 03:59:49;;;;;;;5.38;2.20;;;18.70;50.10;;;;;;5083663;28;20036;-66
2023/06/14 04:02:15;;;;;;;3.72;2.10;;;18.70;50.10;;;;;;5082347;28;20023;-67
2023/06/14 04:04:44;;;;;;;4.88;2.17;;;18.70;50.20;;;;;;5081842;28;20027;-67
2023/06/14 04:07:13;;;;;;;3.85;2.20;;;18.70;50.10;;;;;;5080122;28;20023;-67
2023/06/14 04:09:39;;;;;;;7.72;2.45;;;18.80;50.10;;;;;;5085646;28;20141;-67
2023/06/14 04:12:06;;;;;;;4.25;2.28;;;18.70;50.50;;;;;;5081605;28;20391;-67
2023/06/14 04:14:32;;;;;;;4.82;2.50;;;18.70;50.50;;;;;;5087707;28;20085;-67
2023/06/14 04:16:58;;;;;;;5.55;2.20;;;18.60;50.60;;;;;;5084826;28;20032;-67
2023/06/14 04:19:24;;;;;;;3.38;2.10;;;18.70;50.50;;;;;;5080487;28;20371;-67
2023/06/14 04:21:50;;;;;;;3.33;1.90;;;18.70;50.40;;;;;;5093256;28;20024;-67
2023/06/14 04:24:15;;;;;;;3.90;2.33;;;18.70;50.30;;;;;;5080610;28;20387;-66
2023/06/14 04:26:44;;;;;;;3.90;2.25;;;18.70;50.80;;;;;;5079648;28;20036;-67
2023/06/14 04:29:14;;;;;;;3.85;2.30;;;18.70;50.70;;;;;;5092438;28;20028;-67
2023/06/14 04:31:46;;;;;;;4.28;2.45;;;18.70;51.00;;;;;;5082020;28;20028;-67
2023/06/14 04:34:18;;;;;;;3.58;2.15;;;18.70;51.10;;;;;;5092231;28;20111;-67
2023/06/14 04:36:48;;;;;;;4.18;1.90;;;18.70;50.80;;;;;;5083494;28;20027;-67
2023/06/14 04:39:15;;;;;;;6.35;2.40;;;18.70;50.80;;;;;;5099284;28;20552;-66
2023/06/14 04:41:41;;;;;;;4.28;2.30;;;18.70;51.40;;;;;;5088155;28;20021;-67
2023/06/14 04:44:07;;;;;;;2.63;2.10;;;18.70;51.30;;;;;;5094627;28;20015;-67
2023/06/14 04:46:32;;;;;;;2.75;2.13;;;18.70;51.30;;;;;;5093893;28;20043;-67
2023/06/14 04:49:02;;;;;;;3.65;2.15;;;18.80;51.00;;;;;;5097904;28;20055;-67
2023/06/14 04:51:29;;;;;;;4.05;2.15;;;18.90;51.00;;;;;;5082248;28;20024;-67
2023/06/14 04:53:58;;;;;;;4.03;2.50;;;19.30;50.70;;;;;;5098219;28;20416;-67
2023/06/14 04:56:25;;;;;;;3.92;2.42;;;19.80;49.70;;;;;;5089393;28;20031;-67
2023/06/14 04:58:51;;;;;;;5.50;2.40;;;20.00;49.20;;;;;;5092964;28;20532;-67
2023/06/14 05:01:16;;;;;;;7.57;2.60;;;20.30;48.70;;;;;;5082251;28;20056;-68
2023/06/14 05:03:44;;;;;;;3.70;2.28;;;20.40;48.30;;;;;;5084315;28;20012;-68
2023/06/14 05:06:11;;;;;;;3.72;2.10;;;20.70;47.80;;;;;;5077967;28;20640;-68
2023/06/14 05:08:36;;;;;;;3.55;2.40;;;21.10;47.20;;;;;;5096112;28;20066;-67
2023/06/14 05:11:02;;;;;;;3.90;2.30;;;21.20;46.90;;;;;;5090235;28;20047;-67
2023/06/14 05:13:28;;;;;;;3.40;2.05;;;21.30;46.60;;;;;;5105523;28;20030;-67
2023/06/14 05:15:53;;;;;;;3.13;2.08;;;21.60;46.30;;;;;;5087132;28;20099;-67
2023/06/14 05:18:19;;;;;;;5.00;2.38;;;21.80;45.90;;;;;;5075526;28;20475;-67
2023/06/14 05:20:45;;;;;;;3.47;2.25;;;22.00;45.60;;;;;;5071968;28;20013;-67
2023/06/14 05:23:14;;;;;;;5.22;2.17;;;22.10;45.40;;;;;;5079452;28;20025;-67
2023/06/14 05:25:44;;;;;;;7.65;2.55;;;22.30;45.20;;;;;;5073788;28;20032;-66
2023/06/14 05:28:10;;;;;;;3.70;2.53;;;22.10;45.30;;;;;;5091964;28;20043;-66
2023/06/14 05:30:38;;;;;;;4.75;2.33;;;22.10;45.10;;;;;;5107819;27;20027;-66
2023/06/14 05:33:04;;;;;;;4.40;2.60;;;22.00;45.50;;;;;;5095665;28;20027;-67
2023/06/14 05:35:29;;;;;;;3.80;2.30;;;21.90;45.50;;;;;;5083964;28;20043;-67
2023/06/14 05:37:55;;;;;;;5.50;2.60;;;21.70;45.80;;;;;;5076542;28;20028;-67
2023/06/14 05:40:20;;;;;;;4.15;2.45;;;21.70;45.90;;;;;;5081207;28;20078;-67
2023/06/14 05:42:46;;;;;;;7.40;2.40;;;21.60;46.10;;;;;;5085057;28;20020;-67
2023/06/14 05:45:11;;;;;;;5.82;2.50;;;21.50;46.30;;;;;;5095329;28;20027;-68
2023/06/14 05:47:37;;;;;;;5.72;2.20;;;21.40;46.50;;;;;;5079178;28;20024;-68
2023/06/14 05:50:03;;;;;;;6.10;2.65;;;21.40;46.70;;;;;;5090488;28;20024;-67
2023/06/14 05:52:29;;;;;;;4.25;2.40;;;21.40;46.50;;;;;;5076186;28;20032;-66
2023/06/14 05:54:55;;;;;;;4.68;2.35;;;21.40;46.70;;;;;;5071960;28;20028;-67
2023/06/14 05:57:20;;;;;;;3.00;2.20;;;21.40;46.60;;;;;;5079602;28;20039;-67
2023/06/14 05:59:46;;;;;;;4.95;2.30;;;21.30;46.90;;;;;;5093287;28;20077;-69
2023/06/14 06:02:12;;;;;;;4.00;2.55;;;21.30;46.90;;;;;;5085934;28;20505;-69
2023/06/14 06:04:37;;;;;;;4.88;2.65;;;21.40;46.70;;;;;;5090315;28;20486;-68
2023/06/14 06:07:03;;;;;;;8.52;2.70;;;21.30;46.90;;;;;;5096123;28;20074;-69
2023/06/14 06:09:29;;;;;;;5.22;2.70;;;21.20;46.80;;;;;;5082019;28;20033;-67
2023/06/14 06:11:55;;;;;;;4.93;2.60;;;21.10;47.00;;;;;;5078064;28;20035;-67
2023/06/14 06:14:20;;;;;;;4.13;2.83;;;21.20;47.30;;;;;;5093295;28;20031;-68
2023/06/14 06:16:46;;;;;;;3.58;2.40;;;21.30;47.00;;;;;;5088655;28;20035;-68
2023/06/14 06:19:12;;;;;;;3.45;2.08;;;21.30;46.90;;;;;;5082535;28;20023;-67
2023/06/14 06:21:37;;;;;;;5.43;2.50;;;21.30;46.90;;;;;;5087343;28;20027;-67
2023/06/14 06:24:05;;;;;;;5.07;2.38;;;21.50;46.90;;;;;;5096951;28;20031;-67
2023/06/14 06:26:31;;;;;;;5.05;2.83;;;21.60;46.70;;;;;;5082007;28;20025;-67
2023/06/14 06:28:57;;;;;;;3.75;2.50;;;21.60;46.20;;;;;;5082624;28;20056;-67
2023/06/14 06:31:23;;;;;;;5.40;2.30;;;21.60;46.30;;;;;;5089792;28;20035;-67
2023/06/14 06:33:50;;;;;;;4.57;2.33;;;21.80;46.30;;;;;;5087194;28;20032;-67
2023/06/14 06:36:16;;;;;;;5.93;2.83;;;21.90;46.20;;;;;;5085762;28;20173;-67
2023/06/14 06:38:42;;;;;;;3.10;2.47;;;21.90;45.80;;;;;;5077881;28;20047;-67
2023/06/14 06:41:07;;;;;;;3.88;2.13;;;21.90;46.00;;;;;;5078809;28;20021;-67
2023/06/14 06:43:33;;;;;;;3.45;2.13;;;22.10;46.00;;;;;;5078311;28;20022;-67
2023/06/14 06:45:58;;;;;;;3.85;2.13;;;22.40;45.60;;;;;;5089610;28;20067;-67
2023/06/14 06:48:24;;;;;;;5.15;2.63;;;22.50;45.20;;;;;;5083072;28;20055;-67
2023/06/14 06:50:51;;;;;;;4.65;2.40;;;22.50;44.70;;;;;;5082458;28;20024;-67
2023/06/14 06:53:18;;;;;;;3.30;2.30;;;22.40;45.00;;;;;;5091670;28;20027;-67
2023/06/14 06:55:44;;;;;;;3.67;2.17;;;22.50;44.90;;;;;;5087655;28;20019;-67
2023/06/14 06:58:09;;;;;;;2.70;2.22;;;22.50;44.70;;;;;;5075392;28;20090;-67
2023/06/14 07:00:35;;;;;;;3.53;2.20;;;22.60;44.40;;;;;;5091510;28;20084;-67
2023/06/14 07:03:01;;;;;;;3.53;2.30;;;22.80;44.20;;;;;;5078633;28;20028;-67
2023/06/14 07:05:27;;;;;;;3.17;2.30;;;22.80;44.00;;;;;;5079590;28;20567;-67
2023/06/14 07:07:52;;;;;;;2.85;2.10;;;22.70;43.80;;;;;;5080354;28;20045;-67
2023/06/14 07:10:18;;;;;;;3.42;2.28;;;22.70;43.90;;;;;;5085612;28;20028;-67
2023/06/14 07:12:44;;;;;;;4.47;2.30;;;22.70;43.90;;;;;;5076660;28;20037;-67
2023/06/14 07:15:10;;;;;;;4.38;2.10;;;22.70;43.90;;;;;;5079175;28;20028;-67
2023/06/14 07:17:36;;;;;;;3.85;2.10;;;22.90;43.90;;;;;;5080911;28;20536;-67
2023/06/14 07:20:13;;;;;;;2.45;1.98;;;22.80;43.40;;;;;;5076895;28;20082;-67
2023/06/14 07:22:40;;;;;;;3.28;2.08;;;22.90;43.60;;;;;;5079404;28;20626;-67
2023/06/14 07:25:08;;;;;;;3.42;2.10;;;23.00;43.30;;;;;;5079631;28;20029;-67
2023/06/14 07:27:33;;;;;;;3.28;2.10;;;23.10;43.20;;;;;;5078520;28;20551;-67
2023/06/14 07:29:59;;;;;;;2.10;1.90;;;23.10;43.10;;;;;;5075508;28;20050;-67
2023/06/14 07:32:25;;;;;;;3.10;2.03;;;23.30;43.20;;;;;;5078362;28;20020;-67
2023/06/14 07:34:53;;;;;;;4.43;2.28;;;23.20;42.60;;;;;;5078536;28;20096;-67
2023/06/14 07:37:18;;;;;;;3.25;1.90;;;23.20;42.80;;;;;;5080203;28;20016;-67
2023/06/14 07:39:44;;;;;;;2.80;2.03;;;23.20;42.30;;;;;;5077682;28;20074;-67
2023/06/14 07:42:10;;;;;;;3.65;1.70;;;23.20;42.50;;;;;;5078881;28;20047;-67
2023/06/14 07:44:36;;;;;;;2.03;1.60;;;23.30;42.50;;;;;;5080212;28;20620;-67
2023/06/14 07:47:01;;;;;;;4.60;1.70;;;23.40;42.20;;;;;;5080102;28;20036;-67
2023/06/14 07:49:27;;;;;;;2.33;1.60;;;23.30;41.70;;;;;;5079248;28;20012;-67
2023/06/14 07:51:53;;;;;;;1.80;1.65;;;23.30;42.00;;;;;;5078507;28;20040;-67
2023/06/14 07:54:19;;;;;;;2.22;1.70;;;23.40;41.70;;;;;;5078928;28;20076;-67
2023/06/14 07:56:45;;;;;;;2.70;1.60;;;23.40;41.50;;;;;;5076796;28;20107;-67
2023/06/14 07:59:10;;;;;;;2.58;1.50;;;23.50;41.00;;;;;;5080684;28;20024;-67
2023/06/14 08:01:36;;;;;;;2.22;1.60;;;23.50;41.10;;;;;;5078763;28;20031;-67
2023/06/14 08:04:01;;;;;;;1.60;1.40;;;23.70;41.10;;;;;;5078837;28;20077;-67
2023/06/14 08:06:27;;;;;;;2.90;1.50;;;23.90;41.30;;;;;;5078732;28;20035;-67
2023/06/14 08:08:52;;;;;;;4.13;1.80;;;24.20;40.90;;;;;;5081128;28;20017;-67
2023/06/14 08:11:18;;;;;;;3.13;1.83;;;24.30;40.00;;;;;;5081214;28;20023;-67
2023/06/14 08:13:43;;;;;;;2.55;1.60;;;24.20;39.80;;;;;;5079402;28;20016;-67
2023/06/14 08:16:09;;;;;;;2.75;1.60;;;24.20;39.70;;;;;;5077622;28;20031;-67
2023/06/14 08:18:35;;;;;;;3.05;1.55;;;24.10;39.80;;;;;;5084097;28;20368;-67
2023/06/14 08:21:00;;;;;;;1.85;1.70;;;24.00;39.60;;;;;;5078322;28;20107;-67
2023/06/14 08:23:26;;;;;;;3.17;1.67;;;24.00;40.00;;;;;;5078994;28;20020;-67
2023/06/14 08:25:52;;;;;;;1.88;1.63;;;24.20;39.40;;;;;;5080635;28;20020;-67
2023/06/14 08:28:18;;;;;;;3.17;1.80;;;24.30;39.50;;;;;;5077633;28;20077;-67
2023/06/14 08:30:43;;;;;;;4.10;1.73;;;24.40;39.50;;;;;;5077967;28;20051;-67
2023/06/14 08:33:09;;;;;;;1.95;1.50;;;24.50;39.60;;;;;;5083206;28;20036;-67
2023/06/14 08:35:37;;;;;;;2.30;1.60;;;24.60;39.70;;;;;;5080547;28;20035;-67
2023/06/14 08:38:03;;;;;;;2.38;1.67;;;24.70;39.20;;;;;;5077918;28;20035;-67
2023/06/14 08:40:30;;;;;;;3.78;1.98;;;25.00;38.90;;;;;;5077609;28;20023;-67
2023/06/14 08:42:56;;;;;;;1.83;1.60;;;25.00;37.80;;;;;;5080395;28;20017;-67
2023/06/14 08:45:23;;;;;;;1.92;1.55;;;24.90;37.40;;;;;;5081871;28;20093;-67
2023/06/14 08:47:57;;;;;;;2.53;1.70;;;25.00;37.60;;;;;;5078724;28;20027;-67
2023/06/14 08:50:29;;;;;;;2.65;1.58;;;25.00;37.90;;;;;;5076656;28;20538;-67
2023/06/14 08:53:00;;;;;;;3.15;1.70;;;25.00;38.00;;;;;;5080157;28;20039;-67
2023/06/14 08:55:27;;;;;;;2.17;1.90;;;25.10;38.40;;;;;;5080013;28;20020;-67
2023/06/14 08:57:54;;;;;;;2.58;1.52;;;25.30;38.30;;;;;;5082354;28;20008;-67
2023/06/14 09:00:21;;;;;;;5.05;1.90;;;25.30;38.20;;;;;;5084949;28;20374;-67
2023/06/14 09:02:46;;;;;;;2.78;1.70;;;25.60;38.20;;;;;;5091009;28;20028;-67
2023/06/14 09:05:14;;;;;;;2.15;1.58;;;25.60;37.00;;;;;;5091595;28;20431;-67
2023/06/14 09:07:43;;;;;;;2.22;1.48;;;25.50;36.30;;;;;;5094697;28;20109;-67
2023/06/14 09:10:12;;;;;;;2.80;1.55;;;25.30;36.20;;;;;;5095979;28;20050;-67
2023/06/14 09:12:39;;;;;;;2.10;1.67;;;25.30;36.70;;;;;;5094773;28;20084;-66
2023/06/14 09:15:06;;;;;;;2.15;1.40;;;25.30;37.50;;;;;;5097640;28;20027;-66
2023/06/14 09:17:35;;;;;;;2.40;1.52;;;25.30;36.70;;;;;;5095383;28;20038;-67
2023/06/14 09:20:06;;;;;;;3.25;1.80;;;25.30;36.70;;;;;;5091399;28;20019;-67
2023/06/14 09:22:35;;;;;;;1.80;1.50;;;25.30;37.20;;;;;;5086728;28;20018;-66
2023/06/14 09:25:01;;;;;;;2.97;1.63;;;25.20;37.20;;;;;;5094285;28;20111;-66
2023/06/14 09:27:28;;;;;;;2.10;1.50;;;25.20;37.50;;;;;;5096710;28;20090;-67
2023/06/14 09:29:54;;;;;;;1.60;1.50;;;25.30;37.60;;;;;;5098452;28;20039;-66
2023/06/14 09:32:20;;;;;;;1.70;1.60;;;25.60;37.60;;;;;;5095785;28;20407;-67
2023/06/14 09:34:46;;;;;;;3.38;1.60;;;25.80;37.40;;;;;;5091620;28;20103;-66
2023/06/14 09:37:12;;;;;;;1.63;1.50;;;25.90;36.60;;;;;;5094447;28;20024;-67
2023/06/14 09:39:50;;;;;;;2.58;1.50;;;25.90;36.40;;;;;;5094192;28;20103;-67
2023/06/14 09:42:20;;;;;;;1.63;1.50;;;25.90;36.70;;;;;;5095891;28;20024;-67
2023/06/14 09:44:49;;;;;;;1.92;1.42;;;25.80;37.10;;;;;;5097108;28;20031;-67
2023/06/14 09:47:18;;;;;;;3.72;1.80;;;25.90;36.20;;;;;;5095207;28;20371;-66
2023/06/14 09:49:44;;;;;;;2.22;1.50;;;25.80;35.30;;;;;;5089569;28;20153;-66
2023/06/14 09:52:14;;;;;;;3.28;1.50;;;25.50;35.30;;;;;;5093979;28;20107;-66
2023/06/14 09:54:46;;;;;;;2.33;1.65;;;25.40;35.80;;;;;;5093243;28;20016;-66
2023/06/14 09:57:13;;;;;;;2.08;1.40;;;25.50;35.30;;;;;;5088745;28;20012;-66
2023/06/14 09:59:45;;;;;;;2.35;1.50;;;25.40;35.40;;;;;;5092957;28;20061;-66
2023/06/14 10:02:25;;;;;;;1.40;1.30;;;25.50;35.80;;;;;;5089513;28;20021;-66
2023/06/14 10:05:00;;;;;;;1.95;1.52;;;25.60;36.10;;;;;;5085349;28;20031;-66
2023/06/14 10:07:30;;;;;;;3.35;1.40;;;25.70;36.20;;;;;;5092878;28;20103;-66
2023/06/14 10:09:56;;;;;;;2.65;1.58;;;25.60;36.50;;;;;;5088937;28;20107;-66
2023/06/14 10:12:22;;;;;;;1.80;1.52;;;25.90;36.20;;;;;;5089591;28;20107;-66
2023/06/14 10:14:53;;;;;;;1.33;1.23;;;25.80;36.20;;;;;;5086489;28;20024;-66
2023/06/14 10:17:55;;;;;;;2.75;1.60;;;25.80;36.40;;;;;;5090122;28;20020;-66
2023/06/14 10:20:30;;;;;;;1.60;1.50;;;26.00;36.40;;;;;;5088229;28;20680;-66
2023/06/14 10:23:05;;;;;;;1.58;1.40;;;26.10;36.00;;;;;;5089818;28;20113;-67
2023/06/14 10:25:31;;;;;;;1.70;1.38;;;26.20;35.80;;;;;;5086266;28;20402;-67
2023/06/14 10:28:18;;;;;;;1.67;1.40;;;26.10;36.00;;;;;;5090221;28;20035;-66
2023/06/14 10:31:09;;;;;;;3.20;1.40;;;26.10;36.10;;;;;;5090502;28;20674;-66
2023/06/14 10:33:39;;;;;;;1.40;1.30;;;26.20;36.30;;;;;;5086033;28;20024;-66
2023/06/14 10:36:26;;;;;;;2.42;1.30;;;26.20;35.80;;;;;;5083539;28;20073;-66
2023/06/14 10:39:05;;;;;;;2.75;1.40;;;26.00;36.30;;;;;;5087009;28;20021;-66
2023/06/14 10:41:39;;;;;;;3.30;1.50;;;26.10;35.90;;;;;;5095106;28;20043;-67
2023/06/14 10:44:14;;;;;;;3.63;1.52;;;26.30;35.20;;;;;;5092709;28;20039;-66
2023/06/14 10:46:40;;;;;;;2.38;1.40;;;26.20;34.60;;;;;;5094274;28;20039;-67
2023/06/14 10:49:06;;;;;;;1.60;1.48;;;26.10;34.60;;;;;;5094160;28;20028;-66
2023/06/14 10:51:52;;;;;;;1.92;1.40;;;26.00;34.70;;;;;;5095411;28;20011;-66
2023/06/14 10:54:22;;;;;;;1.80;1.20;;;25.80;35.10;;;;;;5093184;28;20044;-66
2023/06/14 10:56:48;;;;;;;3.30;1.50;;;25.70;35.40;;;;;;5095100;28;20032;-66
2023/06/14 10:59:16;;;;;;;3.20;1.33;;;25.80;35.20;;;;;;5092279;28;20545;-66
2023/06/14 11:01:52;;;;;;;1.40;1.25;;;26.00;35.30;;;;;;5093638;28;20012;-67
2023/06/14 11:04:20;;;;;;;3.28;1.63;;;26.20;35.10;;;;;;5096042;28;20070;-66
2023/06/14 11:06:53;;;;;;;3.05;1.48;;;26.20;34.70;;;;;;5092670;28;20096;-66
2023/06/14 11:09:56;;;;;;;4.35;1.52;;;26.00;34.10;;;;;;5094166;28;20097;-66
2023/06/14 11:12:23;;;;;;;1.60;1.40;;;25.90;34.70;;;;;;5094856;28;20030;-66
2023/06/14 11:14:49;;;;;;;1.40;1.30;;;25.80;34.30;;;;;;5093677;28;20432;-66
2023/06/14 11:17:14;;;;;;;2.05;1.50;;;25.80;34.80;;;;;;5094253;28;20016;-66
2023/06/14 11:19:40;;;;;;;3.72;1.60;;;25.80;34.80;;;;;;5094806;28;20492;-66
2023/06/14 11:22:05;;;;;;;1.63;1.35;;;25.70;34.70;;;;;;5091662;28;20043;-66
2023/06/14 11:24:33;;;;;;;1.50;1.30;;;25.70;35.00;;;;;;5095628;28;20443;-67
2023/06/14 11:26:58;;;;;;;2.85;1.33;;;25.80;35.10;;;;;;5087748;28;20031;-67
2023/06/14 11:29:24;;;;;;;2.50;1.55;;;25.90;35.20;;;;;;5095323;28;20389;-66
2023/06/14 11:31:50;;;;;;;2.10;1.60;;;26.00;34.80;;;;;;5092548;28;20488;-66
2023/06/14 11:34:17;;;;;;;1.75;1.48;;;26.10;34.80;;;;;;5095148;28;20098;-66
2023/06/14 11:36:43;;;;;;;2.88;1.50;;;26.30;34.60;;;;;;5092308;28;20104;-66
2023/06/14 11:39:08;;;;;;;2.58;1.48;;;26.60;34.60;;;;;;5092995;28;20031;-66
2023/06/14 11:41:45;;;;;;;1.88;1.50;;;26.50;34.70;;;;;;5093256;28;20020;-67
2023/06/14 11:44:11;;;;;;;2.72;1.50;;;26.40;35.00;;;;;;5095271;28;20028;-67
2023/06/14 11:46:37;;;;;;;4.18;1.60;;;26.20;35.30;;;;;;5091830;28;20570;-67
2023/06/14 11:49:04;;;;;;;2.28;1.70;;;26.40;35.50;;;;;;5092225;28;20103;-66
2023/06/14 11:51:34;;;;;;;2.95;1.58;;;26.50;35.50;;;;;;5092341;28;20039;-66
2023/06/14 11:54:03;;;;;;;3.20;1.60;;;26.30;35.10;;;;;;5092491;28;20428;-67
2023/06/14 11:56:31;;;;;;;3.75;1.95;;;26.00;35.60;;;;;;5093017;28;20644;-66
2023/06/14 11:58:57;;;;;;;2.25;1.70;;;26.00;35.80;;;;;;5087731;28;20024;-66
2023/06/14 12:01:23;;;;;;;3.13;1.60;;;25.90;35.70;;;;;;5092613;28;20447;-66
2023/06/14 12:03:54;;;;;;;2.92;1.30;;;25.90;35.20;;;;;;5085307;28;20070;-66
2023/06/14 12:06:33;;;;;;;1.45;1.30;;;25.90;35.40;;;;;;5093158;28;20031;-66
2023/06/14 12:08:59;;;;;;;3.10;1.40;;;26.10;35.20;;;;;;5093124;28;20367;-67
2023/06/14 12:11:31;;;;;;;4.05;1.52;;;26.00;35.00;;;;;;5092757;28;20110;-66
2023/06/14 12:13:57;;;;;;;3.58;1.50;;;26.00;34.70;;;;;;5093587;28;20025;-66
2023/06/14 12:16:31;;;;;;;2.08;1.25;;;25.90;34.80;;;;;;5094139;28;20024;-66
2023/06/14 12:19:00;;;;;;;2.00;1.40;;;26.20;35.00;;;;;;5088868;28;20100;-66
2023/06/14 12:21:28;;;;;;;2.85;1.40;;;26.30;34.90;;;;;;5088104;28;20050;-66
2023/06/14 12:23:53;;;;;;;2.25;1.20;;;26.20;34.90;;;;;;5091908;28;20421;-66
2023/06/14 12:26:20;;;;;;;2.08;1.40;;;26.30;35.30;;;;;;5089583;28;20195;-66
2023/06/14 12:28:47;;;;;;;3.33;1.42;;;26.40;34.90;;;;;;5086426;28;20025;-66
2023/06/14 12:31:16;;;;;;;2.15;1.40;;;26.20;35.00;;;;;;5097554;28;20024;-67
2023/06/14 12:33:43;;;;;;;1.67;1.30;;;26.10;35.40;;;;;;5096572;28;20031;-66
2023/06/14 12:36:09;;;;;;;4.10;1.58;;;26.40;35.00;;;;;;5096068;28;20458;-66
2023/06/14 12:38:36;;;;;;;1.55;1.40;;;26.40;34.90;;;;;;5094500;28;20489;-66
2023/06/14 12:41:02;;;;;;;2.80;1.25;;;26.50;34.60;;;;;;5093592;28;20024;-66
2023/06/14 12:43:28;;;;;;;2.83;1.35;;;26.40;34.60;;;;;;5098162;28;20020;-66
2023/06/14 12:45:53;;;;;;;2.90;1.27;;;26.40;35.00;;;;;;5093696;28;20024;-66
2023/06/14 12:48:19;;;;;;;2.25;1.27;;;26.70;35.50;;;;;;5098047;28;20095;-67
2023/06/14 12:50:45;;;;;;;2.45;1.33;;;26.70;35.40;;;;;;5099124;28;20024;-66